createdAt,value
2017-02-05T00:00:45.401Z,96.69
2017-02-05T00:01:54.118Z,96.5
2017-02-05T00:03:03.200Z,96.6
2017-02-05T00:04:11.896Z,96.6
2017-02-05T00:05:20.603Z,96.69
2017-02-05T00:06:29.694Z,96.6
2017-02-05T00:07:38.371Z,96.12
2017-02-05T00:08:47.114Z,96.12
2017-02-05T00:09:55.814Z,96.22
2017-02-05T00:11:04.499Z,96.5
2017-02-05T00:12:13.194Z,96.69
2017-02-05T00:13:22.303Z,96.69
2017-02-05T00:14:30.991Z,96.31
2017-02-05T00:15:39.693Z,96.6
2017-02-05T00:16:48.374Z,96.79
2017-02-05T00:17:57.469Z,96.79
2017-02-05T00:19:06.967Z,96.98
2017-02-05T00:20:15.658Z,97.36
2017-02-05T00:21:24.357Z,97.64
2017-02-05T00:22:33.467Z,97.36
2017-02-05T00:23:42.146Z,97.83
2017-02-05T00:24:50.834Z,96.88
2017-02-05T00:26:00.737Z,97.55
2017-02-05T00:27:09.424Z,97.55
2017-02-05T00:28:18.115Z,97.27
2017-02-05T00:29:27.204Z,97.36
2017-02-05T00:30:35.909Z,97.74
2017-02-05T00:31:44.624Z,97.74
2017-02-05T00:32:53.700Z,98.12
2017-02-05T00:34:02.430Z,97.83
2017-02-05T00:35:11.529Z,97.83
2017-02-05T00:36:20.244Z,97.92
2017-02-05T00:37:28.936Z,97.64
2017-02-05T00:38:37.643Z,97.36
2017-02-05T00:39:46.339Z,98.12
2017-02-05T00:40:55.019Z,97.45
2017-02-05T00:42:04.125Z,97.27
2017-02-05T00:43:12.828Z,97.83
2017-02-05T00:44:21.925Z,97.45
2017-02-05T00:45:30.616Z,96.98
2017-02-05T00:46:39.306Z,96.88
2017-02-05T00:47:48.015Z,97.55
2017-02-05T00:48:56.711Z,97.74
2017-02-05T00:50:05.790Z,97.55
2017-02-05T00:51:14.503Z,97.17
2017-02-05T00:52:23.206Z,97.74
2017-02-05T00:53:32.280Z,97.92
2017-02-05T00:54:40.987Z,97.92
2017-02-05T00:55:49.686Z,98.21
2017-02-05T00:56:58.372Z,97.92
2017-02-05T00:58:07.075Z,97.83
2017-02-05T00:59:15.759Z,98.02
2017-02-05T01:00:24.467Z,97.92
2017-02-05T01:01:33.999Z,98.02
2017-02-05T01:02:42.675Z,98.79
2017-02-05T01:03:51.774Z,97.92
2017-02-05T01:05:00.477Z,97.55
2017-02-05T01:06:09.159Z,97.45
2017-02-05T01:07:17.854Z,97.83
2017-02-05T01:08:26.964Z,96.69
2017-02-05T01:09:35.646Z,97.45
2017-02-05T01:10:44.347Z,97.74
2017-02-05T01:11:53.439Z,97.55
2017-02-05T01:13:02.915Z,96.79
2017-02-05T01:14:12.026Z,97.45
2017-02-05T01:15:20.710Z,97.6
2017-02-05T01:16:29.405Z,97.88
2017-02-05T01:17:39.301Z,98.02
2017-02-05T01:18:48.383Z,97.88
2017-02-05T01:19:57.071Z,98.07
2017-02-05T01:21:06.181Z,98.59
2017-02-05T01:22:14.862Z,98.59
2017-02-05T01:23:23.551Z,98.5
2017-02-05T01:24:32.654Z,98.02
2017-02-05T01:25:41.752Z,97.83
2017-02-05T01:26:50.841Z,98.02
2017-02-05T01:27:59.537Z,98.5
2017-02-05T01:29:08.221Z,98.54
2017-02-05T01:30:17.326Z,98.54
2017-02-05T01:31:26.011Z,99.11
2017-02-05T01:32:34.704Z,98.97
2017-02-05T01:33:43.411Z,97.92
2017-02-05T01:34:52.105Z,97.92
2017-02-05T01:36:00.790Z,98.59
2017-02-05T01:37:09.898Z,98.54
2017-02-05T01:38:19.387Z,97.88
2017-02-05T01:39:28.073Z,98.26
2017-02-05T01:40:37.166Z,99.21
2017-02-05T01:41:45.872Z,98.73
2017-02-05T01:42:54.948Z,99.4
2017-02-05T01:44:03.643Z,99.58
2017-02-05T01:45:12.353Z,98.4
2017-02-05T01:46:21.035Z,98.59
2017-02-05T01:47:29.730Z,99.11
2017-02-05T01:48:39.620Z,98.54
2017-02-05T01:49:48.303Z,98.88
2017-02-05T01:50:56.987Z,99.49
2017-02-05T01:52:05.696Z,99.54
2017-02-05T01:53:14.783Z,99.4
2017-02-05T01:54:23.464Z,99.44
2017-02-05T01:55:32.164Z,99.73
2017-02-05T01:56:40.858Z,98.35
2017-02-05T01:57:49.960Z,98.69
2017-02-05T01:58:59.440Z,99.4
2017-02-05T02:00:08.534Z,99.49
2017-02-05T02:01:17.644Z,99.16
2017-02-05T02:02:26.739Z,99.35
2017-02-05T02:03:35.828Z,99.02
2017-02-05T02:04:44.532Z,99.44
2017-02-05T02:05:53.630Z,98.54
2017-02-05T02:07:02.305Z,98.73
2017-02-05T02:08:11.006Z,99.11
2017-02-05T02:09:20.101Z,98.35
2017-02-05T02:10:28.784Z,98.54
2017-02-05T02:11:37.889Z,98.83
2017-02-05T02:12:46.972Z,99.21
2017-02-05T02:13:55.676Z,99.4
2017-02-05T02:15:04.409Z,99.4
2017-02-05T02:16:14.271Z,99.49
2017-02-05T02:17:23.358Z,99.3
2017-02-05T02:18:32.062Z,99.4
2017-02-05T02:19:40.781Z,99.99
2017-02-05T02:20:49.488Z,99.68
2017-02-05T02:21:58.197Z,99.3
2017-02-05T02:23:06.875Z,99.4
2017-02-05T02:24:15.569Z,99.77
2017-02-05T02:25:24.265Z,99.99
2017-02-05T02:26:32.959Z,99.4
2017-02-05T02:27:42.059Z,99.99
2017-02-05T02:28:50.743Z,99.87
2017-02-05T02:29:59.441Z,99.99
2017-02-05T02:31:08.547Z,99.99
2017-02-05T02:32:17.240Z,99.99
2017-02-05T02:33:27.118Z,99.87
2017-02-05T02:34:36.226Z,99.99
2017-02-05T02:35:44.910Z,99.97
2017-02-05T02:36:54.383Z,99.99
2017-02-05T02:38:03.484Z,99.99
2017-02-05T02:39:12.179Z,99.99
2017-02-05T02:40:20.867Z,99.97
2017-02-05T02:41:29.560Z,99.99
2017-02-05T02:42:38.260Z,99.99
2017-02-05T02:43:46.964Z,99.99
2017-02-05T02:44:55.652Z,99.99
2017-02-05T02:46:04.334Z,99.87
2017-02-05T02:47:13.046Z,99.68
2017-02-05T02:48:22.531Z,99.58
2017-02-05T02:49:31.611Z,99.97
2017-02-05T02:50:40.359Z,99.97
2017-02-05T02:51:49.057Z,99.99
2017-02-05T02:52:57.747Z,99.99
2017-02-05T02:54:06.443Z,99.68
2017-02-05T02:55:15.170Z,99.49
2017-02-05T02:56:24.269Z,99.3
2017-02-05T02:57:33.350Z,99.68
2017-02-05T02:58:42.864Z,99.4
2017-02-05T02:59:51.559Z,99.49
2017-02-05T03:01:00.266Z,99.58
2017-02-05T03:02:08.944Z,98.64
2017-02-05T03:03:17.641Z,98.92
2017-02-05T03:04:26.371Z,98.64
2017-02-05T03:05:35.444Z,99.68
2017-02-05T03:06:44.146Z,98.54
2017-02-05T03:07:52.848Z,98.35
2017-02-05T03:09:01.933Z,99.68
2017-02-05T03:10:11.016Z,98.35
2017-02-05T03:11:19.713Z,98.92
2017-02-05T03:12:28.808Z,98.35
2017-02-05T03:13:37.506Z,98.83
2017-02-05T03:14:46.190Z,98.54
2017-02-05T03:15:54.899Z,98.73
2017-02-05T03:17:04.006Z,98.73
2017-02-05T03:18:12.682Z,98.4
2017-02-05T03:19:21.783Z,99.21
2017-02-05T03:20:30.877Z,99.49
2017-02-05T03:21:39.968Z,98.83
2017-02-05T03:22:48.652Z,98.59
2017-02-05T03:23:57.358Z,99.06
2017-02-05T03:25:06.046Z,99.77
2017-02-05T03:26:14.749Z,99.44
2017-02-05T03:27:24.269Z,98.54
2017-02-05T03:28:32.955Z,98.49
2017-02-05T03:29:41.661Z,98.49
2017-02-05T03:30:50.353Z,98.83
2017-02-05T03:31:59.035Z,99.63
2017-02-05T03:33:08.144Z,99.16
2017-02-05T03:34:17.233Z,99.68
2017-02-05T03:35:25.916Z,99.68
2017-02-05T03:36:35.009Z,99.68
2017-02-05T03:37:43.698Z,99.21
2017-02-05T03:38:52.783Z,99.26
2017-02-05T03:40:01.481Z,99.49
2017-02-05T03:41:10.570Z,99.3
2017-02-05T03:42:19.260Z,99.3
2017-02-05T03:43:27.962Z,99.99
2017-02-05T03:44:36.662Z,99.77
2017-02-05T03:45:45.372Z,99.58
2017-02-05T03:46:54.058Z,99.68
2017-02-05T03:48:03.163Z,99.87
2017-02-05T03:49:12.245Z,99.73
2017-02-05T03:50:20.940Z,99.77
2017-02-05T03:51:29.649Z,99.77
2017-02-05T03:52:38.338Z,99.99
2017-02-05T03:53:47.410Z,99.99
2017-02-05T03:54:56.510Z,99.99
2017-02-05T03:56:05.202Z,99.99
2017-02-05T03:57:13.903Z,99.99
2017-02-05T03:58:22.984Z,99.99
2017-02-05T03:59:32.060Z,99.99
2017-02-05T04:00:40.770Z,99.99
2017-02-05T04:01:49.466Z,99.99
2017-02-05T04:02:58.143Z,99.99
2017-02-05T04:04:06.843Z,99.99
2017-02-05T04:05:15.964Z,99.99
2017-02-05T04:06:24.650Z,99.99
2017-02-05T04:07:33.355Z,99.99
2017-02-05T04:08:42.064Z,99.99
2017-02-05T04:09:51.139Z,99.99
2017-02-05T04:10:59.835Z,99.99
2017-02-05T04:12:08.520Z,99.99
2017-02-05T04:13:17.221Z,99.99
2017-02-05T04:14:25.915Z,99.99
2017-02-05T04:15:34.586Z,99.99
2017-02-05T04:16:43.297Z,99.99
2017-02-05T04:17:52.383Z,99.99
2017-02-05T04:19:01.454Z,99.99
2017-02-05T04:20:10.147Z,99.99
2017-02-05T04:21:19.289Z,99.99
2017-02-05T04:22:27.968Z,99.99
2017-02-05T04:23:36.658Z,99.99
2017-02-05T04:24:45.745Z,99.99
2017-02-05T04:25:54.442Z,99.99
2017-02-05T04:27:03.136Z,99.99
2017-02-05T04:28:11.821Z,99.99
2017-02-05T04:29:20.916Z,99.99
2017-02-05T04:30:29.627Z,99.99
2017-02-05T04:31:38.310Z,99.99
2017-02-05T04:32:47.389Z,99.99
2017-02-05T04:33:56.091Z,99.99
2017-02-05T04:35:05.175Z,99.99
2017-02-05T04:36:13.865Z,99.99
2017-02-05T04:37:22.578Z,99.99
2017-02-05T04:38:32.063Z,99.99
2017-02-05T04:39:41.555Z,99.99
2017-02-05T04:40:50.238Z,99.99
2017-02-05T04:41:58.929Z,99.99
2017-02-05T04:43:08.025Z,99.99
2017-02-05T04:44:17.109Z,99.99
2017-02-05T04:45:25.787Z,99.99
2017-02-05T04:46:34.497Z,99.97
2017-02-05T04:47:43.185Z,99.99
2017-02-05T04:48:51.874Z,99.99
2017-02-05T04:50:00.577Z,99.77
2017-02-05T04:51:09.279Z,99.99
2017-02-05T04:52:17.955Z,99.99
2017-02-05T04:53:27.046Z,99.58
2017-02-05T04:54:35.733Z,99.58
2017-02-05T04:55:45.236Z,99.49
2017-02-05T04:56:54.324Z,99.3
2017-02-05T04:58:03.400Z,99.68
2017-02-05T04:59:12.495Z,99.4
2017-02-05T05:00:21.592Z,99.97
2017-02-05T05:01:31.462Z,99.68
2017-02-05T05:02:40.160Z,99.58
2017-02-05T05:03:48.855Z,99.97
2017-02-05T05:04:57.536Z,99.99
2017-02-05T05:06:06.237Z,99.87
2017-02-05T05:07:14.948Z,99.91
2017-02-05T05:08:23.636Z,99.68
2017-02-05T05:09:32.331Z,99.58
2017-02-05T05:10:41.407Z,99.49
2017-02-05T05:11:50.104Z,99.49
2017-02-05T05:12:58.800Z,98.92
2017-02-05T05:14:07.875Z,98.64
2017-02-05T05:15:16.568Z,99.06
2017-02-05T05:16:25.273Z,99.44
2017-02-05T05:17:34.359Z,99.54
2017-02-05T05:18:43.051Z,99.44
2017-02-05T05:19:51.764Z,99.06
2017-02-05T05:21:00.450Z,98.97
2017-02-05T05:22:09.528Z,99.11
2017-02-05T05:23:18.619Z,98.97
2017-02-05T05:24:28.096Z,98.97
2017-02-05T05:25:36.805Z,98.87
2017-02-05T05:26:45.487Z,98.87
2017-02-05T05:27:54.169Z,98.78
2017-02-05T05:29:03.282Z,98.87
2017-02-05T05:30:11.965Z,99.06
2017-02-05T05:31:20.657Z,99.06
2017-02-05T05:32:29.353Z,99.44
2017-02-05T05:33:38.047Z,99.06
2017-02-05T05:34:46.752Z,98.87
2017-02-05T05:35:55.462Z,98.3
2017-02-05T05:37:04.162Z,98.64
2017-02-05T05:38:12.846Z,98.78
2017-02-05T05:39:21.946Z,99.06
2017-02-05T05:40:30.644Z,99.44
2017-02-05T05:41:39.334Z,99.06
2017-02-05T05:42:48.019Z,98.3
2017-02-05T05:43:56.724Z,98.97
2017-02-05T05:45:05.799Z,98.59
2017-02-05T05:46:14.896Z,98.11
2017-02-05T05:47:23.992Z,98.68
2017-02-05T05:48:33.466Z,98.49
2017-02-05T05:49:42.148Z,99.26
2017-02-05T05:50:50.854Z,98.4
2017-02-05T05:51:59.553Z,98.78
2017-02-05T05:53:08.246Z,98.78
2017-02-05T05:54:16.930Z,98.87
2017-02-05T05:55:26.408Z,99.16
2017-02-05T05:56:35.513Z,99.16
2017-02-05T05:57:44.598Z,98.97
2017-02-05T05:58:53.285Z,98.97
2017-02-05T06:00:01.988Z,99.16
2017-02-05T06:01:10.676Z,99.06
2017-02-05T06:02:19.367Z,99.44
2017-02-05T06:03:28.066Z,99.73
2017-02-05T06:04:36.763Z,99.63
2017-02-05T06:05:45.444Z,99.54
2017-02-05T06:06:54.140Z,99.16
2017-02-05T06:08:03.225Z,99.63
2017-02-05T06:09:11.928Z,99.26
2017-02-05T06:10:20.621Z,99.44
2017-02-05T06:11:29.306Z,99.26
2017-02-05T06:12:38.008Z,99.26
2017-02-05T06:13:47.096Z,98.97
2017-02-05T06:14:55.781Z,99.26
2017-02-05T06:16:04.481Z,99.63
2017-02-05T06:17:13.175Z,99.16
2017-02-05T06:18:21.858Z,99.26
2017-02-05T06:19:30.555Z,99.35
2017-02-05T06:20:39.264Z,99.26
2017-02-05T06:21:47.948Z,99.4
2017-02-05T06:22:56.647Z,98.78
2017-02-05T06:24:05.724Z,99.16
2017-02-05T06:25:14.416Z,99.44
2017-02-05T06:26:23.112Z,99.3
2017-02-05T06:27:31.792Z,99.26
2017-02-05T06:28:40.492Z,99.68
2017-02-05T06:29:49.187Z,99.54
2017-02-05T06:30:58.267Z,99.44
2017-02-05T06:32:07.349Z,99.02
2017-02-05T06:33:16.065Z,99.11
2017-02-05T06:34:25.926Z,99.4
2017-02-05T06:35:34.611Z,99.63
2017-02-05T06:36:43.309Z,99.26
2017-02-05T06:37:52.003Z,99.26
2017-02-05T06:39:00.715Z,99.26
2017-02-05T06:40:09.791Z,99.35
2017-02-05T06:41:18.487Z,99.44
2017-02-05T06:42:27.187Z,99.35
2017-02-05T06:43:35.927Z,99.58
2017-02-05T06:44:45.005Z,98.97
2017-02-05T06:45:53.709Z,99.54
2017-02-05T06:47:02.407Z,99.63
2017-02-05T06:48:11.103Z,99.16
2017-02-05T06:49:19.803Z,99.26
2017-02-05T06:50:28.496Z,99.35
2017-02-05T06:51:37.193Z,99.44
2017-02-05T06:52:46.669Z,99.16
2017-02-05T06:53:55.407Z,99.54
2017-02-05T06:55:04.511Z,99.44
2017-02-05T06:56:13.595Z,99.16
2017-02-05T06:57:22.281Z,99.54
2017-02-05T06:58:30.982Z,99.63
2017-02-05T06:59:39.678Z,99.4
2017-02-05T07:00:48.358Z,99.49
2017-02-05T07:01:57.050Z,99.63
2017-02-05T07:03:06.157Z,99.63
2017-02-05T07:04:14.844Z,99.35
2017-02-05T07:05:23.547Z,99.44
2017-02-05T07:06:32.229Z,99.35
2017-02-05T07:07:40.939Z,99.35
2017-02-05T07:08:50.033Z,99.54
2017-02-05T07:09:58.732Z,99.77
2017-02-05T07:11:07.821Z,99.82
2017-02-05T07:12:16.910Z,99.44
2017-02-05T07:13:25.998Z,99.63
2017-02-05T07:14:34.696Z,99.99
2017-02-05T07:15:43.397Z,99.63
2017-02-05T07:16:52.085Z,99.44
2017-02-05T07:18:00.766Z,99.44
2017-02-05T07:19:09.468Z,99.49
2017-02-05T07:20:18.544Z,99.63
2017-02-05T07:21:27.645Z,99.99
2017-02-05T07:22:36.324Z,99.3
2017-02-05T07:23:45.026Z,99.4
2017-02-05T07:24:54.121Z,99.49
2017-02-05T07:26:02.815Z,99.68
2017-02-05T07:27:11.900Z,99.54
2017-02-05T07:28:20.609Z,99.68
2017-02-05T07:29:29.300Z,99.63
2017-02-05T07:30:37.984Z,99.63
2017-02-05T07:31:46.695Z,98.92
2017-02-05T07:32:55.791Z,99.58
2017-02-05T07:34:04.477Z,99.63
2017-02-05T07:35:13.176Z,99.68
2017-02-05T07:36:22.279Z,99.68
2017-02-05T07:37:30.956Z,99.49
2017-02-05T07:38:39.655Z,99.4
2017-02-05T07:39:48.749Z,99.4
2017-02-05T07:40:57.833Z,99.77
2017-02-05T07:42:06.539Z,99.68
2017-02-05T07:43:15.245Z,99.21
2017-02-05T07:44:23.936Z,99.3
2017-02-05T07:45:33.017Z,99.26
2017-02-05T07:46:41.727Z,99.4
2017-02-05T07:47:50.414Z,99.11
2017-02-05T07:48:59.106Z,99.21
2017-02-05T07:50:07.809Z,99.68
2017-02-05T07:51:16.506Z,99.68
2017-02-05T07:52:25.625Z,99.21
2017-02-05T07:53:34.303Z,99.4
2017-02-05T07:54:43.001Z,99.58
2017-02-05T07:55:52.099Z,99.3
2017-02-05T07:57:00.785Z,99.21
2017-02-05T07:58:09.473Z,99.68
2017-02-05T07:59:18.175Z,99.11
2017-02-05T08:00:26.860Z,99.58
2017-02-05T08:01:35.542Z,98.64
2017-02-05T08:02:44.241Z,98.64
2017-02-05T08:03:54.130Z,98.92
2017-02-05T08:05:03.223Z,98.45
2017-02-05T08:06:11.911Z,99.21
2017-02-05T08:07:20.601Z,99.4
2017-02-05T08:08:29.305Z,99.58
2017-02-05T08:09:38.793Z,99.4
2017-02-05T08:10:47.478Z,98.54
2017-02-05T08:11:56.574Z,98.64
2017-02-05T08:13:05.271Z,99.02
2017-02-05T08:14:13.958Z,98.92
2017-02-05T08:15:22.657Z,98.83
2017-02-05T08:16:31.360Z,98.92
2017-02-05T08:17:40.044Z,98.45
2017-02-05T08:18:48.751Z,98.45
2017-02-05T08:19:58.223Z,99.02
2017-02-05T08:21:06.945Z,98.73
2017-02-05T08:22:16.037Z,98.83
2017-02-05T08:23:24.727Z,98.64
2017-02-05T08:24:33.422Z,99.11
2017-02-05T08:25:42.120Z,98.83
2017-02-05T08:26:50.804Z,99.02
2017-02-05T08:27:59.893Z,98.45
2017-02-05T08:29:09.000Z,98.35
2017-02-05T08:30:17.687Z,98.45
2017-02-05T08:31:26.774Z,98.64
2017-02-05T08:32:35.480Z,98.35
2017-02-05T08:33:44.566Z,98.45
2017-02-05T08:34:53.251Z,98.54
2017-02-05T08:36:02.362Z,98.16
2017-02-05T08:37:11.052Z,98.54
2017-02-05T08:38:20.140Z,98.35
2017-02-05T08:39:28.841Z,98.54
2017-02-05T08:40:37.541Z,98.64
2017-02-05T08:41:46.221Z,98.54
2017-02-05T08:42:54.927Z,97.78
2017-02-05T08:44:03.629Z,97.78
2017-02-05T08:45:12.321Z,98.64
2017-02-05T08:46:21.024Z,98.35
2017-02-05T08:47:29.727Z,98.35
2017-02-05T08:48:38.418Z,98.54
2017-02-05T08:49:47.511Z,97.88
2017-02-05T08:50:56.228Z,97.78
2017-02-05T08:52:05.332Z,98.16
2017-02-05T08:53:14.430Z,97.22
2017-02-05T08:54:23.117Z,97.5
2017-02-05T08:55:32.207Z,97.69
2017-02-05T08:56:41.305Z,97.41
2017-02-05T08:57:49.996Z,97.22
2017-02-05T08:58:58.687Z,97.22
2017-02-05T09:00:07.387Z,97.5
2017-02-05T09:01:16.072Z,97.31
2017-02-05T09:02:24.758Z,96.74
2017-02-05T09:03:33.462Z,96.74
2017-02-05T09:04:42.552Z,97.5
2017-02-05T09:05:51.264Z,97.31
2017-02-05T09:07:00.339Z,97.31
2017-02-05T09:08:09.826Z,97.41
2017-02-05T09:09:18.526Z,97.31
2017-02-05T09:10:27.217Z,96.74
2017-02-05T09:11:35.908Z,97.02
2017-02-05T09:12:44.612Z,96.74
2017-02-05T09:13:53.311Z,97.12
2017-02-05T09:15:02.388Z,96.55
2017-02-05T09:16:11.489Z,96.74
2017-02-05T09:17:20.186Z,97.02
2017-02-05T09:18:29.278Z,96.74
2017-02-05T09:19:37.973Z,96.64
2017-02-05T09:20:47.051Z,96.83
2017-02-05T09:21:55.765Z,96.36
2017-02-05T09:23:04.456Z,96.45
2017-02-05T09:24:13.942Z,96.83
2017-02-05T09:25:22.648Z,96.93
2017-02-05T09:26:31.358Z,96.74
2017-02-05T09:27:40.435Z,96.69
2017-02-05T09:28:49.134Z,96.64
2017-02-05T09:29:58.232Z,96.74
2017-02-05T09:31:06.923Z,96.6
2017-02-05T09:32:15.659Z,96.64
2017-02-05T09:33:24.366Z,96.6
2017-02-05T09:34:33.442Z,96.12
2017-02-05T09:35:42.531Z,96.55
2017-02-05T09:36:51.235Z,97.07
2017-02-05T09:38:00.331Z,96.41
2017-02-05T09:39:09.024Z,96.6
2017-02-05T09:40:17.726Z,96.6
2017-02-05T09:41:27.209Z,96.6
2017-02-05T09:42:35.893Z,96.41
2017-02-05T09:43:44.996Z,95.75
2017-02-05T09:44:53.689Z,96.41
2017-02-05T09:46:02.372Z,95.94
2017-02-05T09:47:11.084Z,96.03
2017-02-05T09:48:20.164Z,96.69
2017-02-05T09:49:28.876Z,96.22
2017-02-05T09:50:37.567Z,95.55
2017-02-05T09:51:46.647Z,94.7
2017-02-05T09:52:55.348Z,95.17
2017-02-05T09:54:04.046Z,96.12
2017-02-05T09:55:12.728Z,96.22
2017-02-05T09:56:21.833Z,94.89
2017-02-05T09:57:30.552Z,95.65
2017-02-05T09:58:39.240Z,95.17
2017-02-05T09:59:48.330Z,95.17
2017-02-05T10:00:57.045Z,95.17
2017-02-05T10:02:06.133Z,95.65
2017-02-05T10:03:15.232Z,94.89
2017-02-05T10:04:23.914Z,95.03
2017-02-05T10:05:32.616Z,95.08
2017-02-05T10:06:41.715Z,95.08
2017-02-05T10:07:50.404Z,95.27
2017-02-05T10:08:59.505Z,95.36
2017-02-05T10:10:08.606Z,95.08
2017-02-05T10:11:17.296Z,94.32
2017-02-05T10:12:26.378Z,94.7
2017-02-05T10:13:35.123Z,95.55
2017-02-05T10:14:43.805Z,95.08
2017-02-05T10:15:52.925Z,94.51
2017-02-05T10:17:02.015Z,94.42
2017-02-05T10:18:10.711Z,94.89
2017-02-05T10:19:19.430Z,94.98
2017-02-05T10:20:28.508Z,94.79
2017-02-05T10:21:37.207Z,94.32
2017-02-05T10:22:45.908Z,93.94
2017-02-05T10:23:54.595Z,93.94
2017-02-05T10:25:03.284Z,93.94
2017-02-05T10:26:12.039Z,94.23
2017-02-05T10:27:20.737Z,94.51
2017-02-05T10:28:29.818Z,94.42
2017-02-05T10:29:38.523Z,93.94
2017-02-05T10:30:47.216Z,94.46
2017-02-05T10:31:55.916Z,93.84
2017-02-05T10:33:04.618Z,94.03
2017-02-05T10:34:13.309Z,94.79
2017-02-05T10:35:22.017Z,93.79
2017-02-05T10:36:30.713Z,93.23
2017-02-05T10:37:39.396Z,93.79
2017-02-05T10:38:48.106Z,93.99
2017-02-05T10:39:56.806Z,93.51
2017-02-05T10:41:05.499Z,93.27
2017-02-05T10:42:14.193Z,94.18
2017-02-05T10:43:23.296Z,93.41
2017-02-05T10:44:31.975Z,93.23
2017-02-05T10:45:40.676Z,93.32
2017-02-05T10:46:49.361Z,92.94
2017-02-05T10:47:58.070Z,91.8
2017-02-05T10:49:06.764Z,91.99
2017-02-05T10:50:15.444Z,91.61
2017-02-05T10:51:24.154Z,91.89
2017-02-05T10:52:32.864Z,92.46
2017-02-05T10:53:41.551Z,91.71
2017-02-05T10:54:50.643Z,91.99
2017-02-05T10:55:59.355Z,92.37
2017-02-05T10:57:08.044Z,91.52
2017-02-05T10:58:16.751Z,90.94
2017-02-05T10:59:25.463Z,91.71
2017-02-05T11:00:34.592Z,91.8
2017-02-05T11:01:43.297Z,90.75
2017-02-05T11:02:51.991Z,90.94
2017-02-05T11:04:01.091Z,91.42
2017-02-05T11:05:09.799Z,90.37
2017-02-05T11:06:18.495Z,91.23
2017-02-05T11:07:27.587Z,91.13
2017-02-05T11:08:36.695Z,90.66
2017-02-05T11:09:45.382Z,90.85
2017-02-05T11:10:54.077Z,91.04
2017-02-05T11:12:02.782Z,89.61
2017-02-05T11:13:11.481Z,90.47
2017-02-05T11:14:20.551Z,90.85
2017-02-05T11:15:29.260Z,90.28
2017-02-05T11:16:37.961Z,89.33
2017-02-05T11:17:46.668Z,88.67
2017-02-05T11:18:55.360Z,89.61
2017-02-05T11:20:04.047Z,89.52
2017-02-05T11:21:13.154Z,88.85
2017-02-05T11:22:21.843Z,88.57
2017-02-05T11:23:30.927Z,89.04
2017-02-05T11:24:40.027Z,88.8
2017-02-05T11:25:48.721Z,88.57
2017-02-05T11:26:57.411Z,88.85
2017-02-05T11:28:06.119Z,88.57
2017-02-05T11:29:15.634Z,88
2017-02-05T11:30:24.312Z,88.76
2017-02-05T11:31:33.008Z,88.67
2017-02-05T11:32:41.716Z,89.04
2017-02-05T11:33:50.793Z,89.8
2017-02-05T11:34:59.526Z,89.37
2017-02-05T11:36:08.233Z,89.37
2017-02-05T11:37:17.720Z,88.61
2017-02-05T11:38:26.417Z,88.28
2017-02-05T11:39:35.123Z,88.09
2017-02-05T11:40:43.823Z,87.66
2017-02-05T11:41:52.505Z,87.85
2017-02-05T11:43:01.217Z,87.38
2017-02-05T11:44:10.321Z,87.24
2017-02-05T11:45:19.020Z,87.43
2017-02-05T11:46:28.107Z,87.52
2017-02-05T11:47:36.811Z,88
2017-02-05T11:48:45.924Z,88.28
2017-02-05T11:49:55.023Z,88.67
2017-02-05T11:51:04.501Z,88
2017-02-05T11:52:13.215Z,88
2017-02-05T11:53:21.915Z,88.38
2017-02-05T11:54:30.609Z,88.67
2017-02-05T11:55:39.711Z,88.76
2017-02-05T11:56:48.419Z,88.76
2017-02-05T11:57:57.099Z,88.76
2017-02-05T11:59:05.798Z,88.76
2017-02-05T12:00:14.493Z,88.57
2017-02-05T12:01:23.204Z,86.76
2017-02-05T12:02:31.902Z,87.52
2017-02-05T12:03:40.588Z,87.71
2017-02-05T12:04:49.292Z,88.47
2017-02-05T12:05:58.001Z,89.14
2017-02-05T12:07:06.686Z,88.67
2017-02-05T12:08:15.390Z,88.67
2017-02-05T12:09:24.096Z,88.67
2017-02-05T12:10:32.780Z,89.18
2017-02-05T12:11:41.479Z,88.71
2017-02-05T12:12:50.591Z,87.47
2017-02-05T12:14:00.085Z,85.95
2017-02-05T12:15:08.785Z,85.86
2017-02-05T12:16:17.871Z,86.61
2017-02-05T12:17:26.983Z,86.05
2017-02-05T12:18:36.084Z,86.71
2017-02-05T12:19:44.775Z,85.76
2017-02-05T12:20:53.471Z,85.86
2017-02-05T12:22:02.189Z,85.28
2017-02-05T12:23:10.882Z,85.76
2017-02-05T12:24:19.586Z,85.47
2017-02-05T12:25:28.287Z,85.62
2017-02-05T12:26:36.992Z,85.38
2017-02-05T12:27:45.673Z,86.43
2017-02-05T12:28:54.384Z,86.47
2017-02-05T12:30:03.871Z,86.57
2017-02-05T12:31:12.581Z,85.43
2017-02-05T12:32:21.272Z,84.39
2017-02-05T12:33:29.962Z,85.05
2017-02-05T12:34:38.679Z,84.67
2017-02-05T12:35:47.373Z,84.58
2017-02-05T12:36:56.449Z,84.86
2017-02-05T12:38:05.153Z,85.53
2017-02-05T12:39:13.852Z,84.48
2017-02-05T12:40:22.541Z,84.67
2017-02-05T12:41:31.246Z,84.77
2017-02-05T12:42:39.954Z,85.15
2017-02-05T12:43:49.042Z,85.62
2017-02-05T12:44:58.539Z,85.15
2017-02-05T12:46:07.235Z,83.72
2017-02-05T12:47:15.940Z,83.67
2017-02-05T12:48:24.642Z,84.52
2017-02-05T12:49:33.321Z,84.91
2017-02-05T12:50:42.035Z,84.24
2017-02-05T12:51:50.739Z,83.67
2017-02-05T12:52:59.436Z,83.19
2017-02-05T12:54:08.537Z,84.05
2017-02-05T12:55:17.651Z,83.39
2017-02-05T12:56:26.736Z,83.86
2017-02-05T12:57:35.431Z,83.67
2017-02-05T12:58:44.132Z,83.1
2017-02-05T12:59:53.236Z,83.39
2017-02-05T13:01:01.935Z,83.19
2017-02-05T13:02:10.631Z,83
2017-02-05T13:03:19.327Z,81.48
2017-02-05T13:04:28.049Z,81.38
2017-02-05T13:05:37.121Z,80.34
2017-02-05T13:06:45.820Z,80.15
2017-02-05T13:07:55.714Z,80.53
2017-02-05T13:09:04.446Z,80.72
2017-02-05T13:10:13.138Z,79.68
2017-02-05T13:11:21.843Z,78.91
2017-02-05T13:12:30.933Z,79.11
2017-02-05T13:13:39.632Z,78.53
2017-02-05T13:14:48.720Z,80.24
2017-02-05T13:15:57.418Z,81.01
2017-02-05T13:17:06.129Z,81.96
2017-02-05T13:18:15.216Z,82.24
2017-02-05T13:19:24.291Z,81.86
2017-02-05T13:20:33.003Z,81.2
2017-02-05T13:21:42.098Z,81.67
2017-02-05T13:22:51.184Z,80.72
2017-02-05T13:23:59.895Z,80.82
2017-02-05T13:25:08.989Z,81.2
2017-02-05T13:26:17.666Z,81.01
2017-02-05T13:27:26.377Z,80.34
2017-02-05T13:28:35.079Z,80.72
2017-02-05T13:29:44.174Z,81.2
2017-02-05T13:30:53.267Z,80.63
2017-02-05T13:32:01.988Z,81.38
2017-02-05T13:33:10.669Z,81.29
2017-02-05T13:34:19.405Z,81.48
2017-02-05T13:35:28.509Z,82.43
2017-02-05T13:36:37.200Z,81.96
2017-02-05T13:37:46.539Z,81.96
2017-02-05T13:38:55.657Z,81.58
2017-02-05T13:40:04.359Z,80.72
2017-02-05T13:41:13.046Z,79.77
2017-02-05T13:42:21.756Z,80.34
2017-02-05T13:43:30.449Z,79.86
2017-02-05T13:44:39.151Z,79.58
2017-02-05T13:45:47.847Z,79.86
2017-02-05T13:46:57.324Z,80.82
2017-02-05T13:48:06.043Z,81.2
2017-02-05T13:49:14.737Z,81.2
2017-02-05T13:50:23.425Z,81.86
2017-02-05T13:51:32.135Z,81.96
2017-02-05T13:52:40.844Z,79.86
2017-02-05T13:53:49.525Z,79.58
2017-02-05T13:54:58.233Z,78.82
2017-02-05T13:56:06.940Z,79.86
2017-02-05T13:57:15.633Z,80.82
2017-02-05T13:58:24.324Z,80.95
2017-02-05T13:59:33.018Z,80.57
2017-02-05T14:00:41.725Z,79.33
2017-02-05T14:01:50.830Z,79.52
2017-02-05T14:03:00.296Z,77.43
2017-02-05T14:04:09.791Z,75.43
2017-02-05T14:05:18.497Z,75.72
2017-02-05T14:06:27.180Z,76.06
2017-02-05T14:07:36.283Z,77.81
2017-02-05T14:08:45.404Z,77.77
2017-02-05T14:09:54.877Z,75.68
2017-02-05T14:11:03.568Z,76.73
2017-02-05T14:12:12.709Z,77.3
2017-02-05T14:13:21.418Z,78.34
2017-02-05T14:14:30.118Z,78.72
2017-02-05T14:15:38.804Z,77.87
2017-02-05T14:16:47.501Z,77.77
2017-02-05T14:17:56.228Z,77.87
2017-02-05T14:19:04.912Z,79.25
2017-02-05T14:20:13.600Z,78.88
2017-02-05T14:21:22.708Z,78.21
2017-02-05T14:22:31.802Z,79.25
2017-02-05T14:23:40.495Z,80.4
2017-02-05T14:24:49.199Z,80.96
2017-02-05T14:25:57.892Z,81.54
2017-02-05T14:27:06.987Z,81.44
2017-02-05T14:28:16.060Z,82.96
2017-02-05T14:29:24.751Z,83.91
2017-02-05T14:30:33.452Z,84.48
2017-02-05T14:31:42.150Z,83.34
2017-02-05T14:32:51.625Z,84.58
2017-02-05T14:34:01.126Z,84.77
2017-02-05T14:35:10.216Z,84.58
2017-02-05T14:36:19.298Z,85.11
2017-02-05T14:37:28.009Z,85.11
2017-02-05T14:38:36.710Z,85.15
2017-02-05T14:39:45.404Z,85.3
2017-02-05T14:40:54.108Z,85.39
2017-02-05T14:42:03.194Z,85.77
2017-02-05T14:43:11.912Z,86.34
2017-02-05T14:44:21.000Z,85.39
2017-02-05T14:45:29.691Z,85.96
2017-02-05T14:46:38.403Z,86.15
2017-02-05T14:47:47.113Z,86.91
2017-02-05T14:48:55.795Z,86.91
2017-02-05T14:50:04.505Z,87.1